createdAt,value
2023-02-14T00:00:53.374Z,102468.65
2023-02-14T00:03:32.512Z,102468.85
2023-02-14T00:06:10.109Z,102474.34
2023-02-14T00:08:44.345Z,102469.63
2023-02-14T00:11:16.829Z,102469.20
2023-02-14T00:14:02.447Z,102468.85
2023-02-14T00:16:34.015Z,102466.84
2023-02-14T00:19:05.983Z,102464.79
2023-02-14T00:21:40.210Z,102465.56
2023-02-14T00:24:14.938Z,102467.80
2023-02-14T00:26:47.076Z,102465.46
2023-02-14T00:29:20.550Z,102469.73
2023-02-14T00:31:52.387Z,102467.52
2023-02-14T00:34:24.173Z,102460.96
2023-02-14T00:36:56.095Z,102459.27
2023-02-14T00:39:29.065Z,102463.73
2023-02-14T00:42:01.094Z,102462.24
2023-02-14T00:44:32.825Z,102464.11
2023-02-14T00:47:04.614Z,102465.57
2023-02-14T00:49:36.461Z,102465.42
2023-02-14T00:52:08.246Z,102465.14
2023-02-14T00:54:40.260Z,102471.52
2023-02-14T00:57:12.874Z,102472.48
2023-02-14T00:59:44.560Z,102478.40
2023-02-14T01:02:16.436Z,102477.38
2023-02-14T01:04:48.241Z,102479.63
2023-02-14T01:07:22.165Z,102480.30
2023-02-14T01:09:53.843Z,102480.90
2023-02-14T01:12:25.549Z,102482.91
2023-02-14T01:14:57.376Z,102485.50
2023-02-14T01:17:29.994Z,102481.31
2023-02-14T01:20:00.541Z,102481.08
2023-02-14T01:22:35.565Z,102473.81
2023-02-14T01:25:09.303Z,102477.48
2023-02-14T01:27:41.456Z,102471.36
2023-02-14T01:30:17.960Z,102467.98
2023-02-14T01:32:49.986Z,102462.20
2023-02-14T01:35:21.777Z,102460.20
2023-02-14T01:37:53.528Z,102460.99
2023-02-14T01:40:25.570Z,102458.48
2023-02-14T01:42:58.060Z,102456.73
2023-02-14T01:45:32.623Z,102458.54
2023-02-14T01:48:04.870Z,102453.55
2023-02-14T01:50:42.397Z,102453.33
2023-02-14T01:53:17.791Z,102451.08
2023-02-14T01:55:59.128Z,102455.42
2023-02-14T01:58:36.357Z,102455.08
2023-02-14T02:01:08.751Z,102463.92
2023-02-14T02:03:45.965Z,102460.68
2023-02-14T02:06:22.534Z,102457.58
2023-02-14T02:09:02.055Z,102455.59
2023-02-14T02:11:35.990Z,102450.38
2023-02-14T02:14:06.459Z,102454.27
2023-02-14T02:17:00.020Z,102450.26
2023-02-14T02:20:04.377Z,102451.27
2023-02-14T02:22:56.534Z,102449.54
2023-02-14T02:25:48.448Z,102445.63
2023-02-14T02:28:54.855Z,102443.35
2023-02-14T02:31:57.068Z,102445.51
2023-02-14T02:37:58.490Z,102439.54
2023-02-14T02:40:37.398Z,102439.27
2023-02-14T02:43:26.267Z,102436.35
2023-02-14T02:46:21.462Z,102436.70
2023-02-14T02:49:02.548Z,102434.53
2023-02-14T02:51:58.850Z,102431.65
2023-02-14T02:54:35.672Z,102432.20
2023-02-14T02:57:13.584Z,102430.36
2023-02-14T02:59:48.138Z,102430.21
2023-02-14T03:02:24.020Z,102432.34
2023-02-14T03:04:59.929Z,102434.12
2023-02-14T03:07:38.985Z,102433.30
2023-02-14T03:10:16.165Z,102435.80
2023-02-14T03:13:20.416Z,102433.59
2023-02-14T03:16:12.029Z,102433.95
2023-02-14T03:18:59.158Z,102435.91
2023-02-14T03:21:41.142Z,102442.42
2023-02-14T03:24:21.815Z,102441.27
2023-02-14T03:27:00.990Z,102448.80
2023-02-14T03:29:43.535Z,102448.94
2023-02-14T03:32:22.136Z,102452.11
2023-02-14T03:35:01.649Z,102450.49
2023-02-14T03:37:38.015Z,102452.34
2023-02-14T03:40:14.406Z,102458.25
2023-02-14T03:42:52.722Z,102456.91
2023-02-14T03:45:34.214Z,102457.28
2023-02-14T03:48:09.954Z,102456.43
2023-02-14T03:50:45.284Z,102449.77
2023-02-14T03:53:22.461Z,102446.85
2023-02-14T03:56:02.732Z,102448.79
2023-02-14T03:58:39.114Z,102451.17
2023-02-14T04:01:15.701Z,102448.96
2023-02-14T04:03:53.433Z,102445.45
2023-02-14T04:06:26.177Z,102441.29
2023-02-14T04:08:57.960Z,102443.91
2023-02-14T04:11:33.443Z,102445.45
2023-02-14T04:14:05.967Z,102451.09
2023-02-14T04:16:51.528Z,102447.94
2023-02-14T04:19:23.867Z,102441.63
2023-02-14T04:21:55.639Z,102440.14
2023-02-14T04:24:27.512Z,102440.63
2023-02-14T04:27:11.130Z,102447.92
2023-02-14T04:29:45.692Z,102448.61
2023-02-14T04:32:19.270Z,102446.55
2023-02-14T04:34:51.917Z,102450.86
2023-02-14T04:37:22.279Z,102450.65
2023-02-14T04:39:54.006Z,102452.48
2023-02-14T04:42:25.766Z,102448.60
2023-02-14T04:44:57.435Z,102447.73
2023-02-14T04:47:29.157Z,102447.88
2023-02-14T04:50:01.031Z,102439.32
2023-02-14T04:52:32.818Z,102442.60
2023-02-14T04:55:04.729Z,102447.73
2023-02-14T04:57:36.731Z,102452.61
2023-02-14T05:00:10.993Z,102448.92
2023-02-14T05:02:42.893Z,102442.31
2023-02-14T05:05:15.273Z,102439.25
2023-02-14T05:07:48.038Z,102439.27
2023-02-14T05:10:18.351Z,102438.66
2023-02-14T05:12:50.198Z,102442.14
2023-02-14T05:15:21.969Z,102441.23
2023-02-14T05:17:53.741Z,102444.36
2023-02-14T05:20:25.500Z,102447.30
2023-02-14T05:22:59.855Z,102443.23
2023-02-14T05:25:32.351Z,102440.98
2023-02-14T05:28:04.033Z,102443.33
2023-02-14T05:30:35.876Z,102442.49
2023-02-14T05:33:07.987Z,102440.37
2023-02-14T05:35:40.187Z,102447.01
2023-02-14T05:38:13.093Z,102449.10
2023-02-14T05:40:45.896Z,102448.77
2023-02-14T05:43:17.886Z,102451.85
2023-02-14T05:45:50.107Z,102455.27
2023-02-14T05:48:21.869Z,102458.06
2023-02-14T05:50:54.512Z,102460.89
2023-02-14T05:53:26.192Z,102459.95
2023-02-14T05:55:57.855Z,102459.15
2023-02-14T05:58:29.806Z,102453.20
2023-02-14T06:01:02.462Z,102458.55
2023-02-14T06:03:34.573Z,102459.77
2023-02-14T06:06:06.751Z,102464.60
2023-02-14T06:08:38.693Z,102464.84
2023-02-14T06:11:10.828Z,102466.13
2023-02-14T06:13:42.603Z,102466.21
2023-02-14T06:16:14.296Z,102468.69
2023-02-14T06:18:46.808Z,102470.19
2023-02-14T06:21:18.490Z,102477.60
2023-02-14T06:23:50.892Z,102481.80
2023-02-14T06:26:22.612Z,102484.55
2023-02-14T06:28:57.840Z,102484.67
2023-02-14T06:31:30.446Z,102479.65
2023-02-14T06:34:02.448Z,102476.77
2023-02-14T06:36:34.711Z,102484.77
2023-02-14T06:39:07.087Z,102485.60
2023-02-14T06:41:38.891Z,102489.81
2023-02-14T06:44:10.642Z,102488.10
2023-02-14T06:46:42.383Z,102487.33
2023-02-14T06:49:14.093Z,102484.34
2023-02-14T06:51:46.212Z,102489.84
2023-02-14T06:54:18.305Z,102494.77
2023-02-14T06:56:50.071Z,102494.77
2023-02-14T06:59:22.773Z,102495.33
2023-02-14T07:01:53.700Z,102500.36
2023-02-14T07:04:25.870Z,102503.94
2023-02-14T07:06:57.770Z,102498.14
2023-02-14T07:09:30.048Z,102497.48
2023-02-14T07:12:03.023Z,102501.20
2023-02-14T07:14:34.907Z,102505.61
2023-02-14T07:17:06.693Z,102510.66
2023-02-14T07:19:38.427Z,102511.36
2023-02-14T07:22:10.226Z,102506.58
2023-02-14T07:24:42.532Z,102504.31
2023-02-14T07:27:14.238Z,102510.27
2023-02-14T07:29:45.983Z,102517.73
2023-02-14T07:32:18.194Z,102521.33
2023-02-14T07:34:50.088Z,102518.63
2023-02-14T07:37:22.094Z,102523.19
2023-02-14T07:39:54.018Z,102528.05
2023-02-14T07:42:25.848Z,102526.96
2023-02-14T07:45:00.498Z,102533.20
2023-02-14T07:47:34.819Z,102533.39
2023-02-14T07:50:08.028Z,102529.67
2023-02-14T07:52:39.735Z,102528.23
2023-02-14T07:55:12.355Z,102527.61
2023-02-14T07:57:44.150Z,102530.27
2023-02-14T08:00:16.961Z,102531.34
2023-02-14T08:02:49.434Z,102530.21
2023-02-14T08:05:21.813Z,102534.48
2023-02-14T08:07:55.253Z,102539.48
2023-02-14T08:10:27.351Z,102532.37
2023-02-14T08:13:02.161Z,102528.13
2023-02-14T08:15:53.457Z,102524.83
2023-02-14T08:18:27.084Z,102521.46
2023-02-14T08:20:59.134Z,102528.67
2023-02-14T08:23:33.265Z,102525.61
2023-02-14T08:26:05.242Z,102531.95
2023-02-14T08:28:37.493Z,102541.31
2023-02-14T08:31:09.500Z,102542.02
2023-02-14T08:33:43.093Z,102535.11
2023-02-14T08:36:17.755Z,102540.50
2023-02-14T08:38:50.264Z,102545.12
2023-02-14T08:41:22.034Z,102546.48
2023-02-14T08:43:53.766Z,102548.90
2023-02-14T08:46:29.118Z,102542.23
2023-02-14T08:49:00.899Z,102545.77
2023-02-14T08:51:32.632Z,102550.57
2023-02-14T08:54:04.884Z,102546.35
2023-02-14T08:56:36.681Z,102544.30
2023-02-14T08:59:08.462Z,102548.38
2023-02-14T09:01:40.355Z,102546.83
2023-02-14T09:04:12.300Z,102552.41
2023-02-14T09:06:44.162Z,102551.95
2023-02-14T09:09:17.561Z,102554.41
2023-02-14T09:11:49.514Z,102552.99
2023-02-14T09:14:21.795Z,102556.06
2023-02-14T09:16:53.600Z,102557.75
2023-02-14T09:19:25.377Z,102561.09
2023-02-14T09:21:57.324Z,102564.20
2023-02-14T09:24:29.359Z,102563.00
2023-02-14T09:27:01.499Z,102565.55
2023-02-14T09:29:33.644Z,102566.51
2023-02-14T09:32:06.385Z,102566.96
2023-02-14T09:34:56.793Z,102550.54
2023-02-14T09:37:46.220Z,102555.02
2023-02-14T09:40:20.336Z,102563.05
2023-02-14T09:43:10.838Z,102562.80
2023-02-14T09:45:43.780Z,102560.31
2023-02-14T09:48:28.205Z,102559.91
2023-02-14T09:51:04.499Z,102571.35
2023-02-14T09:53:46.358Z,102569.23
2023-02-14T09:56:26.067Z,102557.70
2023-02-14T09:59:05.997Z,102554.48
2023-02-14T10:01:44.356Z,102559.94
2023-02-14T10:04:30.134Z,102554.21
2023-02-14T10:07:18.468Z,102550.66
2023-02-14T10:10:00.544Z,102546.09
2023-02-14T10:12:37.086Z,102542.30
2023-02-14T10:15:16.803Z,102541.50
2023-02-14T10:17:52.252Z,102544.98
2023-02-14T10:20:28.227Z,102551.66
2023-02-14T10:23:06.691Z,102540.66
2023-02-14T10:25:45.516Z,102540.90
2023-02-14T10:28:19.827Z,102547.69
2023-02-14T10:31:01.563Z,102537.55
2023-02-14T10:33:36.150Z,102527.88
2023-02-14T10:36:20.574Z,102527.73
2023-02-14T10:39:04.115Z,102521.41
2023-02-14T10:41:49.578Z,102530.45
2023-02-14T10:44:41.400Z,102529.79
2023-02-14T10:47:27.513Z,102524.72
2023-02-14T10:50:09.520Z,102529.11
2023-02-14T10:52:47.312Z,102529.52
2023-02-14T10:55:32.325Z,102532.40
2023-02-14T10:58:08.274Z,102532.13
2023-02-14T11:00:46.041Z,102527.15
2023-02-14T11:03:18.744Z,102533.48
2023-02-14T11:05:51.497Z,102527.38
2023-02-14T11:08:25.123Z,102526.39
2023-02-14T11:11:04.078Z,102525.95
2023-02-14T11:13:39.375Z,102524.00
2023-02-14T11:16:14.898Z,102519.56
2023-02-14T11:18:46.965Z,102518.71
2023-02-14T11:21:24.188Z,102517.69
2023-02-14T11:23:56.532Z,102512.39
2023-02-14T11:26:32.244Z,102512.92
2023-02-14T11:29:11.950Z,102505.05
2023-02-14T11:31:44.381Z,102502.23
2023-02-14T11:34:36.601Z,102503.24
2023-02-14T11:37:28.585Z,102509.92
2023-02-14T11:40:02.368Z,102508.97
2023-02-14T11:42:42.403Z,102506.80
2023-02-14T11:45:32.678Z,102500.45
2023-02-14T11:48:22.359Z,102501.02
2023-02-14T11:51:06.605Z,102497.28
2023-02-14T11:53:45.793Z,102491.74
2023-02-14T11:56:19.266Z,102497.77
2023-02-14T11:58:55.403Z,102495.35
2023-02-14T12:01:30.971Z,102492.98
2023-02-14T12:04:07.454Z,102495.98
2023-02-14T12:06:39.484Z,102494.70
2023-02-14T12:09:30.029Z,102480.34
2023-02-14T12:12:04.497Z,102481.73
2023-02-14T12:14:37.600Z,102481.32
2023-02-14T12:17:22.277Z,102478.12
2023-02-14T12:20:00.969Z,102470.77
2023-02-14T12:22:41.305Z,102469.11
2023-02-14T12:25:20.928Z,102473.23
2023-02-14T12:27:58.070Z,102475.15
2023-02-14T12:30:33.460Z,102476.08
2023-02-14T12:33:16.872Z,102472.54
2023-02-14T12:35:55.841Z,102473.94
2023-02-14T12:38:37.431Z,102471.74
2023-02-14T12:41:26.447Z,102470.45
2023-02-14T12:43:59.842Z,102464.14
2023-02-14T12:46:56.906Z,102470.98
2023-02-14T12:49:57.329Z,102468.27
2023-02-14T12:52:48.245Z,102466.80
2023-02-14T12:55:44.024Z,102460.77
2023-02-14T12:58:27.048Z,102459.76
2023-02-14T13:01:11.232Z,102454.27
2023-02-14T13:03:59.961Z,102456.84
2023-02-14T13:06:35.371Z,102454.35
2023-02-14T13:09:25.437Z,102458.39
2023-02-14T13:12:08.582Z,102452.59
2023-02-14T13:14:52.033Z,102451.31
2023-02-14T13:17:34.794Z,102450.70
2023-02-14T13:20:34.983Z,102454.04
2023-02-14T13:23:13.644Z,102455.17
2023-02-14T13:25:50.807Z,102453.60
2023-02-14T13:28:23.150Z,102453.42
2023-02-14T13:30:56.693Z,102451.48
2023-02-14T13:33:36.370Z,102449.70
2023-02-14T13:36:11.200Z,102444.23
2023-02-14T13:38:46.874Z,102444.02
2023-02-14T13:41:20.676Z,102442.45
2023-02-14T13:43:57.536Z,102445.70
2023-02-14T13:46:52.125Z,102447.67
2023-02-14T13:49:30.665Z,102447.73
2023-02-14T13:52:04.696Z,102446.52
2023-02-14T13:54:45.512Z,102438.36
2023-02-14T13:57:34.138Z,102441.52
2023-02-14T14:00:36.382Z,102439.45
2023-02-14T14:03:13.292Z,102443.93
2023-02-14T14:06:04.788Z,102445.90
2023-02-14T14:08:51.988Z,102442.66
2023-02-14T14:11:52.459Z,102441.38
2023-02-14T14:14:36.382Z,102435.02
2023-02-14T14:17:27.560Z,102430.44
2023-02-14T14:19:59.718Z,102430.31
2023-02-14T14:22:32.058Z,102431.11
2023-02-14T14:25:08.832Z,102424.44
2023-02-14T14:27:46.744Z,102428.45
2023-02-14T14:30:25.753Z,102426.23
2023-02-14T14:32:58.097Z,102425.24
2023-02-14T14:35:29.854Z,102423.09
2023-02-14T14:38:03.702Z,102420.55
2023-02-14T14:40:38.400Z,102418.92
2023-02-14T14:43:27.189Z,102417.58
2023-02-14T14:46:00.628Z,102420.77
2023-02-14T14:48:38.458Z,102423.07
2023-02-14T14:51:24.890Z,102422.61
2023-02-14T14:53:59.903Z,102424.08
2023-02-14T14:56:35.437Z,102426.98
2023-02-14T14:59:27.400Z,102417.66
2023-02-14T15:01:59.952Z,102419.31
2023-02-14T15:04:33.928Z,102416.25
2023-02-14T15:10:21.616Z,102409.11
2023-02-14T15:13:15.302Z,102401.96
2023-02-14T15:15:52.182Z,102403.44
2023-02-14T15:18:24.935Z,102399.65
2023-02-14T15:20:55.587Z,102394.84
2023-02-14T15:23:28.176Z,102390.34
2023-02-14T15:26:00.406Z,102391.10
2023-02-14T15:28:35.386Z,102391.41
2023-02-14T15:31:08.627Z,102385.22
2023-02-14T15:33:40.974Z,102385.78
2023-02-14T15:36:21.025Z,102383.21
2023-02-14T15:38:59.318Z,102376.81
2023-02-14T15:41:31.021Z,102381.02
2023-02-14T15:44:02.779Z,102377.20
2023-02-14T15:46:40.110Z,102377.80
2023-02-14T15:49:16.219Z,102379.25
2023-02-14T15:51:51.457Z,102381.38
2023-02-14T15:54:29.605Z,102384.52
2023-02-14T15:57:02.678Z,102387.54
2023-02-14T15:59:36.799Z,102389.02
2023-02-14T16:02:27.077Z,102385.66
2023-02-14T16:05:07.257Z,102385.61
2023-02-14T16:07:39.499Z,102382.95
2023-02-14T16:10:25.494Z,102388.20
2023-02-14T16:12:59.945Z,102391.31
2023-02-14T16:15:33.748Z,102392.14
2023-02-14T16:18:18.124Z,102391.00
2023-02-14T16:20:51.514Z,102390.52
2023-02-14T16:23:27.094Z,102392.66
2023-02-14T16:25:59.218Z,102394.91
2023-02-14T16:28:34.582Z,102392.05
2023-02-14T16:31:10.418Z,102394.42
2023-02-14T16:33:42.784Z,102394.55
2023-02-14T16:36:23.142Z,102401.00
2023-02-14T16:38:55.644Z,102400.75
2023-02-14T16:41:32.084Z,102396.40
2023-02-14T16:44:04.388Z,102396.89
2023-02-14T16:46:38.197Z,102398.23
2023-02-14T16:49:10.125Z,102398.73
2023-02-14T16:51:44.780Z,102400.96
2023-02-14T16:54:20.119Z,102402.42
2023-02-14T16:56:56.843Z,102405.27
2023-02-14T16:59:28.662Z,102403.89
2023-02-14T17:02:02.286Z,102409.01
2023-02-14T17:04:34.423Z,102405.77
2023-02-14T17:07:07.491Z,102409.77
2023-02-14T17:09:44.692Z,102406.02
2023-02-14T17:12:21.590Z,102402.05
2023-02-14T17:14:59.714Z,102405.96
2023-02-14T17:17:31.830Z,102407.91
2023-02-14T17:20:04.887Z,102414.73
2023-02-14T17:22:37.530Z,102410.95
2023-02-14T17:25:10.297Z,102408.08
2023-02-14T17:27:43.913Z,102409.27
2023-02-14T17:30:20.046Z,102408.24
2023-02-14T17:32:51.927Z,102408.23
2023-02-14T17:35:24.176Z,102409.79
2023-02-14T17:37:56.001Z,102402.34
2023-02-14T17:40:27.995Z,102403.67
2023-02-14T17:43:00.990Z,102405.56
2023-02-14T17:45:32.790Z,102408.14
2023-02-14T17:48:04.582Z,102405.27
2023-02-14T17:50:36.559Z,102408.23
2023-02-14T17:53:09.319Z,102405.92
2023-02-14T17:55:39.457Z,102405.29
2023-02-14T17:58:11.536Z,102399.67
2023-02-14T18:00:43.878Z,102401.90
2023-02-14T18:03:15.796Z,102404.16
2023-02-14T18:05:48.008Z,102403.77
2023-02-14T18:08:20.734Z,102402.48
2023-02-14T18:10:50.882Z,102401.83
2023-02-14T18:13:22.721Z,102408.77
2023-02-14T18:15:55.336Z,102407.63
2023-02-14T18:18:26.213Z,102403.68
2023-02-14T18:21:00.324Z,102400.98
2023-02-14T18:23:33.230Z,102408.00
2023-02-14T18:26:05.568Z,102407.89
2023-02-14T18:28:37.911Z,102402.90
2023-02-14T18:31:14.260Z,102400.63
2023-02-14T18:33:47.312Z,102402.34
2023-02-14T18:36:21.829Z,102403.09
2023-02-14T18:38:55.062Z,102402.31
2023-02-14T18:41:30.087Z,102402.27
2023-02-14T18:44:03.263Z,102409.59
2023-02-14T18:46:36.676Z,102406.17
2023-02-14T18:49:09.416Z,102404.96
2023-02-14T18:51:41.681Z,102399.92
2023-02-14T18:54:13.498Z,102400.13
2023-02-14T18:56:45.862Z,102400.52
2023-02-14T18:59:17.636Z,102399.06
2023-02-14T19:01:49.436Z,102390.76
2023-02-14T19:04:21.756Z,102394.38
2023-02-14T19:06:53.608Z,102395.81
2023-02-14T19:09:27.379Z,102388.52
2023-02-14T19:12:00.205Z,102377.58
2023-02-14T19:14:32.211Z,102387.64
2023-02-14T19:17:05.506Z,102386.52
2023-02-14T19:19:37.917Z,102379.92
2023-02-14T19:22:09.616Z,102379.39
2023-02-14T19:24:41.461Z,102379.45
2023-02-14T19:27:13.477Z,102380.67
2023-02-14T19:29:45.528Z,102374.70
2023-02-14T19:32:17.538Z,102374.39
2023-02-14T19:34:50.296Z,102376.73
2023-02-14T19:37:22.318Z,102376.89
2023-02-14T19:39:54.487Z,102371.54
2023-02-14T19:42:26.229Z,102368.86
2023-02-14T19:44:57.943Z,102375.25
2023-02-14T19:47:46.261Z,102377.84
2023-02-14T19:50:21.951Z,102372.19
2023-02-14T19:52:54.020Z,102366.84
2023-02-14T19:55:27.854Z,102378.66
2023-02-14T19:57:59.908Z,102376.98
2023-02-14T20:00:32.104Z,102371.15
2023-02-14T20:03:06.050Z,102374.02
2023-02-14T20:05:40.630Z,102373.70
2023-02-14T20:08:12.879Z,102376.44
2023-02-14T20:10:44.683Z,102380.48
2023-02-14T20:13:16.634Z,102381.38
2023-02-14T20:15:48.960Z,102376.54
2023-02-14T20:18:20.766Z,102372.63
2023-02-14T20:21:04.669Z,102371.94
2023-02-14T20:23:36.822Z,102370.89
2023-02-14T20:26:14.338Z,102370.55
2023-02-14T20:28:47.302Z,102370.60
2023-02-14T20:31:20.124Z,102364.95
2023-02-14T20:33:52.846Z,102363.39
2023-02-14T20:36:25.388Z,102368.00
2023-02-14T20:38:56.776Z,102369.90
2023-02-14T20:41:29.801Z,102366.20
2023-02-14T20:44:06.829Z,102364.65
2023-02-14T20:46:39.219Z,102359.92
2023-02-14T20:49:12.359Z,102358.44
2023-02-14T20:51:46.045Z,102356.52
2023-02-14T20:54:18.397Z,102357.67
2023-02-14T20:56:51.469Z,102357.42
2023-02-14T20:59:27.283Z,102349.70
2023-02-14T21:02:00.721Z,102352.70
2023-02-14T21:04:33.820Z,102353.61
2023-02-14T21:07:08.847Z,102347.92
2023-02-14T21:09:40.691Z,102350.12
2023-02-14T21:12:13.422Z,102351.35
2023-02-14T21:14:45.327Z,102346.37
2023-02-14T21:17:17.521Z,102342.56
2023-02-14T21:19:49.390Z,102342.55
2023-02-14T21:22:21.219Z,102338.27
2023-02-14T21:24:55.868Z,102333.98
2023-02-14T21:27:28.368Z,102336.18
2023-02-14T21:30:00.465Z,102326.91
2023-02-14T21:32:32.457Z,102328.92
2023-02-14T21:35:05.260Z,102329.02
2023-02-14T21:37:35.797Z,102325.06
2023-02-14T21:40:09.563Z,102324.30
2023-02-14T21:42:41.608Z,102321.20
2023-02-14T21:45:33.284Z,102320.14
2023-02-14T21:48:23.473Z,102317.56
2023-02-14T21:50:55.245Z,102321.29
2023-02-14T21:53:27.371Z,102320.95
2023-02-14T21:56:06.614Z,102325.16
2023-02-14T21:58:39.065Z,102324.46
2023-02-14T22:01:17.418Z,102320.20
2023-02-14T22:03:50.144Z,102318.38
2023-02-14T22:06:20.430Z,102322.26
2023-02-14T22:08:55.970Z,102326.02
2023-02-14T22:11:29.684Z,102322.32
2023-02-14T22:14:01.948Z,102317.98
2023-02-14T22:16:36.610Z,102318.92
2023-02-14T22:19:10.093Z,102316.80
2023-02-14T22:21:42.461Z,102318.07
2023-02-14T22:24:14.793Z,102316.11
2023-02-14T22:26:46.866Z,102316.05
2023-02-14T22:29:18.749Z,102313.09
2023-02-14T22:31:50.953Z,102313.49
2023-02-14T22:34:23.310Z,102310.21
2023-02-14T22:36:55.139Z,102306.90
2023-02-14T22:39:27.626Z,102310.12
2023-02-14T22:41:59.534Z,102305.91
2023-02-14T22:44:31.392Z,102302.13
2023-02-14T22:47:03.113Z,102303.45
2023-02-14T22:49:34.984Z,102300.40
2023-02-14T22:52:07.151Z,102294.86
2023-02-14T22:54:38.908Z,102293.52
2023-02-14T22:57:10.628Z,102293.08
2023-02-14T22:59:42.534Z,102292.19
2023-02-14T23:02:14.713Z,102291.47
2023-02-14T23:04:46.730Z,102283.89
2023-02-14T23:07:18.536Z,102288.70
2023-02-14T23:09:51.473Z,102282.00
2023-02-14T23:12:37.270Z,102279.46
2023-02-14T23:15:28.999Z,102279.67
2023-02-14T23:18:18.103Z,102276.17
2023-02-14T23:21:07.806Z,102271.09
2023-02-14T23:23:39.523Z,102273.84
2023-02-14T23:26:11.340Z,102270.73
2023-02-14T23:28:43.526Z,102274.35
2023-02-14T23:31:15.416Z,102271.23
2023-02-14T23:33:50.677Z,102276.33
2023-02-14T23:36:22.670Z,102274.77
2023-02-14T23:38:54.596Z,102270.23
2023-02-14T23:41:44.334Z,102267.57
2023-02-14T23:44:17.267Z,102266.48
2023-02-14T23:46:50.172Z,102267.31
2023-02-14T23:49:22.463Z,102270.06
2023-02-14T23:51:56.319Z,102270.83
2023-02-14T23:54:29.161Z,102268.39
2023-02-14T23:57:01.159Z,102263.25
2023-02-14T23:59:32.970Z,102263.13
